Time;durP1;ratioP1;P1;durP2;ratioP2;P2;SDS_P1;SDS_P2;PMS_P1;PMS_P2;Temp;Humidity;BMP_temperature;BMP_pressure;BME280_temperature;BME280_humidity;BME280_pressure;Samples;Min_cycle;Max_cycle;Signal;HPM_P1;HPM_P2
2021/06/20 00:01:27;;;;;;;;;;;13.60;99.90;;;;;;5076665;28;19978;-87
2021/06/20 00:03:54;;;;;;;;;;;13.50;99.90;;;;;;5076827;28;19938;-87
2021/06/20 00:06:25;;;;;;;;;;;13.40;99.90;;;;;;5076312;28;19924;-87
2021/06/20 00:08:53;;;;;;;;;;;13.30;99.90;;;;;;5076614;28;19931;-87
2021/06/20 00:11:20;;;;;;;;;;;13.30;99.90;;;;;;5076287;28;20341;-87
2021/06/20 00:13:47;;;;;;;;;;;13.30;99.90;;;;;;5076414;28;19930;-87
2021/06/20 00:16:13;;;;;;;;;;;13.30;99.90;;;;;;5076369;28;19928;-87
2021/06/20 00:18:40;;;;;;;;;;;13.20;99.90;;;;;;5076529;28;20015;-87
2021/06/20 00:21:07;;;;;;;;;;;13.20;99.90;;;;;;5076350;28;19978;-87
2021/06/20 00:23:34;;;;;;;;;;;13.20;99.90;;;;;;5076190;28;19928;-87
2021/06/20 00:26:02;;;;;;;;;;;13.20;99.90;;;;;;5076084;28;19924;-87
2021/06/20 00:28:29;;;;;;;;;;;13.10;99.90;;;;;;5076113;28;19935;-87
2021/06/20 00:30:56;;;;;;;;;;;13.00;99.90;;;;;;5076299;28;19935;-87
2021/06/20 00:33:23;;;;;;;;;;;13.00;99.90;;;;;;5076209;28;19931;-87
2021/06/20 00:35:49;;;;;;;;;;;12.90;99.90;;;;;;5075743;28;20259;-86
2021/06/20 00:38:16;;;;;;;;;;;12.90;99.90;;;;;;5075914;28;19935;-87
2021/06/20 00:40:43;;;;;;;;;;;12.90;99.90;;;;;;5075958;28;19931;-86
2021/06/20 00:43:11;;;;;;;;;;;12.90;99.90;;;;;;5075700;28;19934;-86
2021/06/20 00:45:39;;;;;;;;;;;12.80;99.90;;;;;;5075701;28;19928;-87
2021/06/20 00:48:06;;;;;;;;;;;12.80;99.90;;;;;;5075837;28;19925;-86
2021/06/20 00:50:33;;;;;;;;;;;12.70;99.90;;;;;;5075721;28;20356;-87
2021/06/20 00:53:00;;;;;;;;;;;12.70;99.90;;;;;;5075578;28;19931;-86
2021/06/20 00:55:28;;;;;;;;;;;12.70;99.90;;;;;;5075509;28;19950;-86
2021/06/20 00:57:55;;;;;;;;;;;12.60;99.90;;;;;;5075453;28;19929;-86
2021/06/20 01:00:23;;;;;;;;;;;12.60;99.90;;;;;;5075443;28;20245;-87
2021/06/20 01:02:50;;;;;;;;;;;12.60;99.90;;;;;;5075604;28;19924;-87
2021/06/20 01:05:17;;;;;;;;;;;12.50;99.90;;;;;;5075441;28;19934;-86
2021/06/20 01:07:44;;;;;;;;;;;12.50;99.90;;;;;;5075228;28;20264;-86
2021/06/20 01:10:11;;;;;;;;;;;12.50;99.90;;;;;;5075486;28;19942;-86
2021/06/20 01:12:38;;;;;;;;;;;12.50;99.90;;;;;;5075185;28;19942;-86
2021/06/20 01:15:05;;;;;;;;;;;12.40;99.90;;;;;;5075287;28;20023;-85
2021/06/20 01:17:33;;;;;;;;;;;12.40;99.90;;;;;;5075153;28;20280;-85
2021/06/20 01:20:00;;;;;;;;;;;12.30;99.90;;;;;;5075191;28;19925;-85
2021/06/20 01:22:28;;;;;;;;;;;12.30;99.90;;;;;;5075134;28;19935;-85
2021/06/20 01:24:56;;;;;;;;;;;12.20;99.90;;;;;;5075182;28;19928;-83
2021/06/20 01:27:24;;;;;;;;;;;12.20;99.90;;;;;;5075342;28;19924;-84
2021/06/20 01:29:51;;;;;;;;;;;12.20;99.90;;;;;;5075243;28;19924;-84
2021/06/20 01:32:18;;;;;;;;;;;12.20;99.90;;;;;;5075125;28;19925;-84
2021/06/20 01:34:45;;;;;;;;;;;12.20;99.90;;;;;;5075030;28;20019;-84
2021/06/20 01:37:12;;;;;;;;;;;12.10;99.90;;;;;;5075091;28;19935;-84
2021/06/20 01:39:40;;;;;;;;;;;12.10;99.90;;;;;;5074912;28;19936;-84
2021/06/20 01:42:07;;;;;;;;;;;12.00;99.90;;;;;;5074974;28;19925;-84
2021/06/20 01:44:44;;;;;;;;;;;12.00;99.90;;;;;;5075122;28;19924;-85
2021/06/20 01:47:10;;;;;;;;;;;12.00;99.90;;;;;;5075072;28;19935;-85
2021/06/20 01:49:37;;;;;;;;;;;12.00;99.90;;;;;;5078145;28;20460;-85
2021/06/20 01:52:04;;;;;;;;;;;11.90;99.90;;;;;;5079010;28;20275;-85
2021/06/20 01:54:34;;;;;;;;;;;11.90;99.90;;;;;;5079232;28;19961;-86
2021/06/20 01:57:02;;;;;;;;;;;11.90;99.90;;;;;;5079019;28;20368;-85
2021/06/20 01:59:29;;;;;;;;;;;11.90;99.90;;;;;;5078852;28;19931;-86
2021/06/20 02:01:56;;;;;;;;;;;12.00;99.90;;;;;;5078822;28;19928;-85
2021/06/20 02:04:22;;;;;;;;;;;12.00;99.90;;;;;;5078929;28;19936;-85
2021/06/20 02:06:49;;;;;;;;;;;12.00;99.90;;;;;;5078653;28;20263;-85
2021/06/20 02:09:16;;;;;;;;;;;11.90;99.90;;;;;;5078782;28;19928;-86
2021/06/20 02:11:43;;;;;;;;;;;11.90;99.90;;;;;;5078817;28;19942;-86
2021/06/20 02:14:14;;;;;;;;;;;11.90;99.90;;;;;;5078837;28;19934;-86
2021/06/20 02:16:40;;;;;;;;;;;11.90;99.90;;;;;;5078591;28;20344;-87
2021/06/20 02:19:07;;;;;;;;;;;11.90;99.90;;;;;;5078535;28;20483;-87
2021/06/20 02:21:34;;;;;;;;;;;11.80;99.90;;;;;;5078455;28;19925;-87
2021/06/20 02:24:01;;;;;;;;;;;11.90;99.90;;;;;;5078724;28;19925;-86
2021/06/20 02:26:28;;;;;;;;;;;11.90;99.90;;;;;;5078489;28;19928;-87
2021/06/20 02:28:55;;;;;;;;;;;11.90;99.90;;;;;;5078394;28;19924;-87
2021/06/20 02:31:23;;;;;;;;;;;11.90;99.90;;;;;;5078309;28;19947;-86
2021/06/20 02:33:50;;;;;;;;;;;11.80;99.90;;;;;;5078149;28;19936;-87
2021/06/20 02:36:17;;;;;;;;;;;11.80;99.90;;;;;;5078490;28;19928;-87
2021/06/20 02:38:43;;;;;;;;;;;11.70;99.90;;;;;;5078253;28;19924;-87
2021/06/20 02:41:10;;;;;;;;;;;11.70;99.90;;;;;;5078169;28;19924;-87
2021/06/20 02:43:37;;;;;;;;;;;11.60;99.90;;;;;;5078143;28;19924;-87
2021/06/20 02:46:04;;;;;;;;;;;11.60;99.90;;;;;;5078104;28;19924;-86
2021/06/20 02:48:32;;;;;;;;;;;11.50;99.90;;;;;;5077982;28;19925;-87
2021/06/20 02:50:59;;;;;;;;;;;11.40;99.90;;;;;;5077863;28;19935;-87
2021/06/20 02:53:26;;;;;;;;;;;11.40;99.90;;;;;;5078038;28;19925;-86
2021/06/20 02:55:53;;;;;;;;;;;11.40;99.90;;;;;;5078032;28;19925;-87
2021/06/20 02:58:20;;;;;;;;;;;11.30;99.90;;;;;;5077904;28;19935;-88
2021/06/20 03:00:46;;;;;;;;;;;11.30;99.90;;;;;;5077828;28;20369;-87
2021/06/20 03:03:13;;;;;;;;;;;11.30;99.90;;;;;;5077702;28;19934;-87
2021/06/20 03:05:42;;;;;;;;;;;11.20;99.90;;;;;;5077590;28;20341;-88
2021/06/20 03:08:08;;;;;;;;;;;11.20;99.90;;;;;;5077763;28;20333;-87
2021/06/20 03:10:35;;;;;;;;;;;11.20;99.90;;;;;;5077716;28;20357;-87
2021/06/20 03:13:06;;;;;;;;;;;11.10;99.90;;;;;;5077587;28;19924;-87
2021/06/20 03:15:33;;;;;;;;;;;11.10;99.90;;;;;;5077705;28;19924;-87
2021/06/20 03:18:00;;;;;;;;;;;11.10;99.90;;;;;;5077581;28;19985;-87
2021/06/20 03:20:27;;;;;;;;;;;11.10;99.90;;;;;;5077546;28;19928;-87
2021/06/20 03:22:55;;;;;;;;;;;11.10;99.90;;;;;;5077386;28;19924;-87
2021/06/20 03:25:22;;;;;;;;;;;11.20;99.90;;;;;;5077797;28;19935;-87
2021/06/20 03:27:49;;;;;;;;;;;11.10;99.90;;;;;;5077405;28;19924;-87
2021/06/20 03:30:16;;;;;;;;;;;11.20;99.90;;;;;;5077361;28;19935;-87
2021/06/20 03:32:43;;;;;;;;;;;11.20;99.90;;;;;;5077270;28;20271;-87
2021/06/20 03:35:11;;;;;;;;;;;11.10;99.90;;;;;;5077221;28;20336;-87
2021/06/20 03:37:38;;;;;;;;;;;11.20;99.90;;;;;;5077348;28;19928;-87
2021/06/20 03:40:07;;;;;;;;;;;11.20;99.90;;;;;;5077278;28;19930;-87
2021/06/20 03:42:34;;;;;;;;;;;11.20;99.90;;;;;;5076988;28;19924;-87
2021/06/20 03:45:01;;;;;;;;;;;11.30;99.90;;;;;;5077070;28;19950;-87
2021/06/20 03:47:27;;;;;;;;;;;11.30;99.90;;;;;;5077196;28;19929;-87
2021/06/20 03:49:54;;;;;;;;;;;11.30;99.90;;;;;;5077222;28;19943;-87
2021/06/20 03:52:21;;;;;;;;;;;11.30;99.90;;;;;;5076978;28;19924;-87
2021/06/20 03:54:50;;;;;;;;;;;11.40;99.90;;;;;;5077055;28;20272;-88
2021/06/20 03:57:19;;;;;;;;;;;11.40;99.90;;;;;;5076729;28;20031;-87
2021/06/20 03:59:46;;;;;;;;;;;11.50;99.90;;;;;;5076755;28;20276;-87
2021/06/20 04:02:13;;;;;;;;;;;11.50;99.90;;;;;;5076851;28;19925;-87
2021/06/20 04:04:41;;;;;;;;;;;11.50;99.90;;;;;;5076588;28;19931;-87
2021/06/20 04:07:08;;;;;;;;;;;11.50;99.90;;;;;;5076558;28;20355;-87
2021/06/20 04:09:35;;;;;;;;;;;11.50;99.90;;;;;;5076817;28;19924;-87
2021/06/20 04:12:02;;;;;;;;;;;11.60;99.90;;;;;;5076109;28;19924;-88
2021/06/20 04:14:31;;;;;;;;;;;11.60;99.90;;;;;;5076878;28;19931;-88
2021/06/20 04:16:58;;;;;;;;;;;11.60;99.90;;;;;;5076448;28;19978;-88
2021/06/20 04:19:24;;;;;;;;;;;11.60;99.90;;;;;;5076392;28;19924;-87
2021/06/20 04:21:51;;;;;;;;;;;11.60;99.90;;;;;;5076596;28;19924;-88
2021/06/20 04:24:18;;;;;;;;;;;11.70;99.90;;;;;;5076342;28;19924;-89
2021/06/20 04:26:45;;;;;;;;;;;11.70;99.90;;;;;;5076378;28;19924;-89
2021/06/20 04:29:12;;;;;;;;;;;11.70;99.90;;;;;;5076187;28;19924;-88
2021/06/20 04:31:40;;;;;;;;;;;11.70;99.90;;;;;;5076083;28;19925;-88
2021/06/20 04:34:07;;;;;;;;;;;11.80;99.90;;;;;;5075849;28;19939;-88
2021/06/20 04:36:34;;;;;;;;;;;11.80;99.90;;;;;;5076124;28;19925;-88
2021/06/20 04:39:01;;;;;;;;;;;11.80;99.90;;;;;;5075936;28;19935;-88
2021/06/20 04:41:28;;;;;;;;;;;11.90;99.90;;;;;;5075983;28;19940;-89
2021/06/20 04:44:00;;;;;;;;;;;11.90;99.90;;;;;;5076274;28;19933;-89
2021/06/20 04:46:29;;;;;;;;;;;11.90;99.90;;;;;;5075913;28;19936;-90
2021/06/20 04:48:57;;;;;;;;;;;11.90;99.90;;;;;;5076110;28;19924;-91
2021/06/20 04:51:24;;;;;;;;;;;11.90;99.90;;;;;;5075862;28;19924;-91
2021/06/20 04:53:51;;;;;;;;;;;11.80;99.90;;;;;;5075754;28;19924;-88
2021/06/20 04:56:18;;;;;;;;;;;11.90;99.90;;;;;;5075702;28;19938;-88
2021/06/20 04:58:44;;;;;;;;;;;11.90;99.90;;;;;;5075980;28;20249;-88
2021/06/20 05:01:11;;;;;;;;;;;11.90;99.90;;;;;;5075775;28;19950;-89
2021/06/20 05:03:38;;;;;;;;;;;11.90;99.90;;;;;;5075648;28;20352;-89
2021/06/20 05:06:06;;;;;;;;;;;11.90;99.90;;;;;;5075309;28;19935;-88
2021/06/20 05:08:33;;;;;;;;;;;11.90;99.90;;;;;;5075623;28;19935;-89
2021/06/20 05:11:00;;;;;;;;;;;11.90;99.90;;;;;;5075530;28;19924;-88
2021/06/20 05:13:27;;;;;;;;;;;12.00;99.90;;;;;;5075566;28;19925;-89
2021/06/20 05:15:54;;;;;;;;;;;12.00;99.90;;;;;;5075690;28;19924;-88
2021/06/20 05:18:21;;;;;;;;;;;12.00;99.90;;;;;;5075535;28;20367;-89
2021/06/20 05:20:48;;;;;;;;;;;12.00;99.90;;;;;;5075777;28;20280;-88
2021/06/20 05:23:16;;;;;;;;;;;12.00;99.90;;;;;;5074618;28;20002;-89
2021/06/20 05:25:43;;;;;;;;;;;12.00;99.90;;;;;;5075413;28;20360;-89
2021/06/20 05:28:10;;;;;;;;;;;12.00;99.90;;;;;;5075212;28;19925;-89
2021/06/20 05:30:36;;;;;;;;;;;12.00;99.90;;;;;;5075160;28;20267;-88
2021/06/20 05:33:03;;;;;;;;;;;12.00;99.90;;;;;;5075091;28;20336;-88
2021/06/20 05:35:30;;;;;;;;;;;12.00;99.90;;;;;;5075215;28;20270;-87
2021/06/20 05:37:57;;;;;;;;;;;12.10;99.90;;;;;;5075051;28;19924;-88
2021/06/20 05:40:26;;;;;;;;;;;12.10;99.90;;;;;;5075092;28;19934;-88
2021/06/20 05:42:53;;;;;;;;;;;12.10;99.90;;;;;;5075266;28;19947;-88
2021/06/20 05:45:19;;;;;;;;;;;12.10;99.90;;;;;;5075086;28;20348;-88
2021/06/20 05:47:46;;;;;;;;;;;12.10;99.90;;;;;;5075131;28;19953;-88
2021/06/20 05:50:13;;;;;;;;;;;12.10;99.90;;;;;;5075060;28;19924;-87
2021/06/20 05:52:40;;;;;;;;;;;12.10;99.90;;;;;;5074995;28;19934;-88
2021/06/20 05:55:07;;;;;;;;;;;12.10;99.90;;;;;;5075048;28;19925;-87
2021/06/20 05:57:35;;;;;;;;;;;12.10;99.90;;;;;;5075115;28;19924;-88
2021/06/20 06:00:02;;;;;;;;;;;12.10;99.90;;;;;;5074999;28;19924;-88
2021/06/20 06:02:29;;;;;;;;;;;12.10;99.90;;;;;;5075207;28;19924;-89
2021/06/20 06:04:56;;;;;;;;;;;12.10;99.90;;;;;;5074817;28;20363;-88
2021/06/20 06:07:23;;;;;;;;;;;12.10;99.90;;;;;;5074814;28;19924;-89
2021/06/20 06:09:49;;;;;;;;;;;12.10;99.90;;;;;;5074948;28;19933;-88
2021/06/20 06:12:21;;;;;;;;;;;12.10;99.90;;;;;;5074890;28;19925;-88
2021/06/20 06:14:49;;;;;;;;;;;12.10;99.90;;;;;;5074889;28;19929;-89
2021/06/20 06:17:16;;;;;;;;;;;12.10;99.90;;;;;;5074904;28;19924;-89
2021/06/20 06:19:43;;;;;;;;;;;12.10;99.90;;;;;;5074747;28;19924;-89
2021/06/20 06:22:10;;;;;;;;;;;12.10;99.90;;;;;;5074836;28;19925;-90
2021/06/20 06:24:37;;;;;;;;;;;12.20;99.90;;;;;;5074830;28;19924;-90
2021/06/20 06:27:04;;;;;;;;;;;12.20;99.90;;;;;;5074927;28;19924;-90
2021/06/20 06:29:31;;;;;;;;;;;12.20;99.90;;;;;;5074736;28;20344;-90
2021/06/20 06:31:59;;;;;;;;;;;12.20;99.90;;;;;;5074648;28;19934;-89
2021/06/20 06:34:26;;;;;;;;;;;12.20;99.90;;;;;;5075485;28;19925;-90
2021/06/20 06:36:53;;;;;;;;;;;12.30;99.90;;;;;;5078676;28;19935;-89
2021/06/20 06:39:20;;;;;;;;;;;12.30;99.90;;;;;;5078604;28;19931;-89
2021/06/20 06:41:47;;;;;;;;;;;12.30;99.90;;;;;;5078779;28;20260;-90
2021/06/20 06:44:14;;;;;;;;;;;12.30;99.90;;;;;;5078328;28;19938;-90
2021/06/20 06:46:41;;;;;;;;;;;12.30;99.90;;;;;;5078244;28;19928;-90
2021/06/20 06:49:09;;;;;;;;;;;12.40;99.90;;;;;;5078245;28;19929;-90
2021/06/20 06:51:36;;;;;;;;;;;12.40;99.90;;;;;;5078405;28;20255;-90
2021/06/20 06:54:02;;;;;;;;;;;12.40;99.90;;;;;;5078039;28;20006;-90
2021/06/20 06:56:29;;;;;;;;;;;12.50;99.90;;;;;;5078183;28;19929;-90
2021/06/20 06:58:56;;;;;;;;;;;12.50;99.90;;;;;;5078093;28;19925;-89
2021/06/20 07:01:23;;;;;;;;;;;12.60;99.90;;;;;;5078056;28;19969;-90
2021/06/20 07:03:50;;;;;;;;;;;12.60;99.90;;;;;;5077875;28;19928;-90
2021/06/20 07:06:19;;;;;;;;;;;12.70;99.90;;;;;;5077924;28;19925;-89
2021/06/20 07:08:46;;;;;;;;;;;12.70;99.90;;;;;;5078073;28;19935;-90
2021/06/20 07:11:12;;;;;;;;;;;12.70;99.90;;;;;;5077981;28;20360;-89
2021/06/20 07:13:39;;;;;;;;;;;12.70;99.90;;;;;;5077600;28;20023;-89
2021/06/20 07:16:06;;;;;;;;;;;12.80;99.90;;;;;;5077714;28;20364;-88
2021/06/20 07:18:33;;;;;;;;;;;12.70;99.90;;;;;;5077783;28;19931;-89
2021/06/20 07:21:02;;;;;;;;;;;12.80;99.90;;;;;;5077869;28;19935;-89
2021/06/20 07:23:30;;;;;;;;;;;12.90;99.90;;;;;;5077790;28;19924;-89
2021/06/20 07:25:57;;;;;;;;;;;13.00;99.90;;;;;;5077594;28;19934;-89
2021/06/20 07:28:24;;;;;;;;;;;13.00;99.90;;;;;;5077604;28;19925;-90
2021/06/20 07:30:50;;;;;;;;;;;13.10;99.90;;;;;;5077345;28;19954;-89
2021/06/20 07:33:17;;;;;;;;;;;13.20;99.90;;;;;;5077489;28;20260;-89
2021/06/20 07:35:48;;;;;;;;;;;13.20;99.90;;;;;;5077438;28;19935;-89
2021/06/20 07:38:15;;;;;;;;;;;13.30;99.90;;;;;;5077507;28;20325;-89
2021/06/20 07:40:43;;;;;;;;;;;13.40;99.90;;;;;;5077211;28;19924;-89
2021/06/20 07:43:10;;;;;;;;;;;13.50;99.90;;;;;;5077227;28;19924;-87
2021/06/20 07:45:37;;;;;;;;;;;13.60;99.90;;;;;;5076287;28;19925;-87
2021/06/20 07:48:06;;;;;;;;;;;13.70;99.90;;;;;;5077001;28;19991;-89
2021/06/20 07:50:33;;;;;;;;;;;13.80;99.90;;;;;;5077006;28;19924;-87
2021/06/20 07:53:00;;;;;;;;;;;14.00;99.90;;;;;;5077067;28;19928;-88
2021/06/20 07:55:26;;;;;;;;;;;13.90;99.90;;;;;;5076947;28;20244;-87
2021/06/20 07:57:55;;;;;;;;;;;14.00;99.90;;;;;;5076845;28;19925;-88
2021/06/20 08:00:22;;;;;;;;;;;14.10;99.90;;;;;;5076671;28;19924;-88
2021/06/20 08:02:48;;;;;;;;;;;14.20;99.90;;;;;;5076731;28;19924;-87
2021/06/20 08:05:16;;;;;;;;;;;14.30;99.90;;;;;;5076679;28;19983;-87
2021/06/20 08:07:43;;;;;;;;;;;14.40;99.90;;;;;;5076654;28;20015;-87
2021/06/20 08:10:10;;;;;;;;;;;14.50;99.90;;;;;;5076644;28;20256;-87
2021/06/20 08:12:38;;;;;;;;;;;14.60;99.90;;;;;;5076411;28;20365;-87
2021/06/20 08:15:07;;;;;;;;;;;14.70;99.90;;;;;;5076534;28;19940;-87
2021/06/20 08:17:34;;;;;;;;;;;14.80;99.90;;;;;;5076595;28;20245;-88
2021/06/20 08:20:01;;;;;;;;;;;14.80;99.90;;;;;;5076434;28;20272;-88
2021/06/20 08:22:28;;;;;;;;;;;14.80;99.90;;;;;;5059924;28;19925;-87
2021/06/20 08:24:55;;;;;;;;;;;14.80;99.90;;;;;;5056296;28;19935;-84
2021/06/20 08:27:21;;;;;;;;;;;14.80;99.90;;;;;;5056217;28;19935;-87
2021/06/20 08:29:53;;;;;;;;;;;14.90;99.90;;;;;;5056364;28;19924;-86
2021/06/20 08:32:21;;;;;;;;;;;14.90;99.90;;;;;;5056265;28;19978;-87
2021/06/20 08:34:48;;;;;;;;;;;14.80;99.90;;;;;;5055826;28;19925;-87
2021/06/20 08:37:15;;;;;;;;;;;14.80;99.90;;;;;;5056356;28;19935;-87
2021/06/20 08:39:42;;;;;;;;;;;14.80;99.90;;;;;;5056032;28;19935;-88
2021/06/20 08:42:09;;;;;;;;;;;14.70;99.90;;;;;;5055901;28;20389;-87
2021/06/20 08:44:36;;;;;;;;;;;14.70;99.90;;;;;;5055940;28;20265;-87
2021/06/20 08:47:03;;;;;;;;;;;14.60;99.90;;;;;;5055731;28;19935;-87
2021/06/20 08:49:31;;;;;;;;;;;14.60;99.90;;;;;;5055651;28;19929;-87
2021/06/20 08:51:58;;;;;;;;;;;14.60;99.90;;;;;;5055990;28;19924;-87
2021/06/20 08:54:25;;;;;;;;;;;14.60;99.90;;;;;;5055826;28;20278;-87
2021/06/20 08:56:52;;;;;;;;;;;14.40;99.90;;;;;;5055482;28;19932;-88
2021/06/20 08:59:19;;;;;;;;;;;14.40;99.90;;;;;;5055902;28;19943;-85
2021/06/20 09:01:46;;;;;;;;;;;14.40;99.90;;;;;;5055772;28;19935;-88
2021/06/20 09:04:23;;;;;;;;;;;14.40;99.90;;;;;;5055560;28;19935;-87
2021/06/20 09:06:51;;;;;;;;;;;14.50;99.90;;;;;;5055411;28;19939;-84
2021/06/20 09:09:26;;;;;;;;;;;14.40;99.90;;;;;;5055451;28;20341;-87
2021/06/20 09:11:53;;;;;;;;;;;14.50;99.90;;;;;;5055635;28;19935;-88
2021/06/20 09:14:21;;;;;;;;;;;14.50;99.90;;;;;;5055435;28;19947;-87
2021/06/20 09:16:49;;;;;;;;;;;14.50;99.90;;;;;;5055302;28;20352;-87
2021/06/20 09:19:16;;;;;;;;;;;14.50;99.90;;;;;;5055487;28;19924;-88
2021/06/20 09:21:53;;;;;;;;;;;14.60;99.90;;;;;;5055558;28;20252;-88
2021/06/20 09:24:20;;;;;;;;;;;14.60;99.90;;;;;;5056238;28;19925;-88
2021/06/20 09:26:51;;;;;;;;;;;14.70;99.90;;;;;;5055262;28;19925;-87
2021/06/20 09:29:20;;;;;;;;;;;14.60;99.90;;;;;;5055214;28;19931;-82
2021/06/20 09:31:47;;;;;;;;;;;14.70;99.90;;;;;;5055059;28;19935;-82
2021/06/20 09:34:14;;;;;;;;;;;14.70;99.90;;;;;;5055053;28;19924;-82
2021/06/20 09:36:40;;;;;;;;;;;14.80;99.90;;;;;;5055331;28;20353;-79
2021/06/20 09:39:19;;;;;;;;;;;14.90;99.90;;;;;;5054986;28;19931;-81
2021/06/20 09:41:55;;;;;;;;;;;15.10;99.90;;;;;;5055078;28;19924;-81
2021/06/20 09:44:32;;;;;;;;;;;15.20;99.90;;;;;;5054984;28;19925;-81
2021/06/20 09:46:59;;;;;;;;;;;15.30;99.90;;;;;;5054931;28;19929;-81
2021/06/20 09:49:27;;;;;;;;;;;15.40;99.90;;;;;;5054784;28;20353;-81
2021/06/20 09:51:54;;;;;;;;;;;15.30;99.90;;;;;;5054696;28;19966;-81
2021/06/20 09:54:28;;;;;;;;;;;15.30;99.90;;;;;;5054838;28;19933;-81
2021/06/20 09:56:55;;;;;;;;;;;15.30;99.90;;;;;;5054786;28;20268;-81
2021/06/20 09:59:26;;;;;;;;;;;15.30;99.90;;;;;;5054725;28;19929;-81
2021/06/20 10:01:53;;;;;;;;;;;15.40;99.90;;;;;;5054885;28;20326;-81
2021/06/20 10:04:20;;;;;;;;;;;15.40;99.90;;;;;;5054791;28;19924;-81
2021/06/20 10:06:46;;;;;;;;;;;15.50;99.90;;;;;;5054734;28;19924;-81
2021/06/20 10:09:13;;;;;;;;;;;15.60;99.90;;;;;;5055367;28;20019;-82
2021/06/20 10:11:41;;;;;;;;;;;15.60;99.90;;;;;;5058702;28;19925;-81
2021/06/20 10:14:08;;;;;;;;;;;15.70;99.90;;;;;;5058588;28;20364;-81
2021/06/20 10:16:37;;;;;;;;;;;15.70;99.90;;;;;;5058660;28;19924;-81
2021/06/20 10:19:05;;;;;;;;;;;15.60;99.90;;;;;;5058563;28;19935;-81
2021/06/20 10:21:34;;;;;;;;;;;15.60;99.90;;;;;;5058676;28;19928;-82
2021/06/20 10:24:11;;;;;;;;;;;15.50;99.90;;;;;;5058598;28;20300;-82
2021/06/20 10:26:38;;;;;;;;;;;15.50;99.90;;;;;;5058451;28;19935;-81
2021/06/20 10:29:16;;;;;;;;;;;15.60;99.90;;;;;;5058582;28;19935;-81
2021/06/20 10:31:43;;;;;;;;;;;15.70;99.90;;;;;;5058398;28;19925;-81
2021/06/20 10:34:17;;;;;;;;;;;15.80;99.90;;;;;;5058314;28;19935;-81
2021/06/20 10:36:44;;;;;;;;;;;16.00;99.90;;;;;;5058779;28;19931;-81
2021/06/20 10:39:11;;;;;;;;;;;16.10;99.90;;;;;;5058233;28;20357;-81
2021/06/20 10:41:38;;;;;;;;;;;16.20;99.90;;;;;;5058113;28;19928;-81
2021/06/20 10:44:05;;;;;;;;;;;16.20;99.90;;;;;;5058253;28;19924;-82
2021/06/20 10:46:35;;;;;;;;;;;16.20;99.90;;;;;;5057445;28;19939;-81
2021/06/20 10:49:02;;;;;;;;;;;16.30;99.90;;;;;;5057887;28;20265;-81
2021/06/20 10:51:31;;;;;;;;;;;16.40;99.90;;;;;;5057817;28;19935;-81
2021/06/20 10:53:57;;;;;;;;;;;16.50;99.90;;;;;;5057860;28;19935;-81
2021/06/20 10:56:25;;;;;;;;;;;16.60;99.90;;;;;;5058040;28;19925;-80
2021/06/20 10:58:52;;;;;;;;;;;16.70;99.90;;;;;;5058089;28;19943;-80
2021/06/20 11:01:20;;;;;;;;;;;16.80;99.90;;;;;;5057812;28;19931;-81
2021/06/20 11:03:59;;;;;;;;;;;16.80;99.90;;;;;;5057864;28;19935;-80
2021/06/20 11:06:26;;;;;;;;;;;16.80;99.90;;;;;;5057773;28;19925;-80
2021/06/20 11:08:55;;;;;;;;;;;16.90;99.90;;;;;;5057734;28;20379;-81
2021/06/20 11:11:23;;;;;;;;;;;16.90;99.90;;;;;;5057520;28;19987;-81
2021/06/20 11:14:03;;;;;;;;;;;16.90;99.90;;;;;;5057866;28;19982;-80
2021/06/20 11:16:30;;;;;;;;;;;17.10;99.90;;;;;;5057619;28;20020;-81
2021/06/20 11:19:12;;;;;;;;;;;17.10;99.90;;;;;;5057479;28;20015;-80
2021/06/20 11:21:40;;;;;;;;;;;17.10;99.90;;;;;;5056023;28;19935;-80
2021/06/20 11:24:07;;;;;;;;;;;17.10;99.90;;;;;;5057397;28;19999;-80
2021/06/20 11:26:36;;;;;;;;;;;17.20;99.90;;;;;;5057364;28;19925;-80
2021/06/20 11:29:03;;;;;;;;;;;17.30;99.90;;;;;;5057302;28;19936;-81
2021/06/20 11:31:30;;;;;;;;;;;17.40;99.90;;;;;;5057241;28;20257;-80
2021/06/20 11:33:57;;;;;;;;;;;17.30;99.90;;;;;;5057135;28;19932;-80
2021/06/20 11:36:29;;;;;;;;;;;17.40;99.90;;;;;;5057147;28;20356;-80
2021/06/20 11:38:56;;;;;;;;;;;17.40;99.90;;;;;;5057182;28;19928;-80
2021/06/20 11:41:23;;;;;;;;;;;17.50;99.90;;;;;;5057155;28;19929;-80
2021/06/20 11:43:54;;;;;;;;;;;17.50;99.90;;;;;;5056959;28;19987;-80
2021/06/20 11:46:22;;;;;;;;;;;17.30;99.90;;;;;;5057223;28;20023;-80
2021/06/20 11:48:55;;;;;;;;;;;17.40;99.90;;;;;;5056965;28;20337;-80
2021/06/20 11:51:34;;;;;;;;;;;17.40;99.90;;;;;;5057283;28;19951;-80
2021/06/20 11:54:14;;;;;;;;;;;17.50;99.90;;;;;;5056907;28;19925;-81
2021/06/20 11:56:41;;;;;;;;;;;17.60;99.90;;;;;;5056675;28;19928;-82
2021/06/20 11:59:08;;;;;;;;;;;17.60;99.90;;;;;;5056960;28;19929;-82
2021/06/20 12:01:39;;;;;;;;;;;17.60;99.90;;;;;;5056840;28;19924;-81
2021/06/20 12:04:06;;;;;;;;;;;17.70;99.90;;;;;;5060454;28;19938;-82
2021/06/20 12:06:34;;;;;;;;;;;17.80;99.90;;;;;;5063828;28;19932;-84
2021/06/20 12:09:06;;;;;;;;;;;17.70;99.90;;;;;;5056766;28;19935;-84
2021/06/20 12:11:33;;;;;;;;;;;17.70;99.90;;;;;;5056763;28;20376;-84
2021/06/20 12:14:00;;;;;;;;;;;17.70;99.90;;;;;;5056425;28;19931;-84
2021/06/20 12:16:26;;;;;;;;;;;17.70;99.90;;;;;;5056442;28;19925;-84
2021/06/20 12:18:54;;;;;;;;;;;17.80;99.90;;;;;;5056661;28;19926;-83
2021/06/20 12:21:23;;;;;;;;;;;17.80;99.90;;;;;;5056329;28;19935;-85
2021/06/20 12:23:54;;;;;;;;;;;17.90;99.90;;;;;;5056472;28;19975;-84
2021/06/20 12:26:25;;;;;;;;;;;17.80;99.90;;;;;;5056217;28;19924;-85
2021/06/20 12:28:52;;;;;;;;;;;17.80;99.90;;;;;;5056151;28;19932;-84
2021/06/20 12:31:19;;;;;;;;;;;17.80;99.90;;;;;;5056199;28;19932;-84
2021/06/20 12:33:46;;;;;;;;;;;17.70;99.90;;;;;;5069352;28;20081;-83
2021/06/20 12:36:12;;;;;;;;;;;17.80;99.90;;;;;;5075993;28;19935;-85
2021/06/20 12:38:40;;;;;;;;;;;17.80;99.90;;;;;;5076236;28;19925;-83
2021/06/20 12:41:17;;;;;;;;;;;17.90;99.90;;;;;;5075846;28;20015;-84
2021/06/20 12:43:45;;;;;;;;;;;17.90;99.90;;;;;;5076082;28;19924;-84
2021/06/20 12:46:14;;;;;;;;;;;18.00;99.90;;;;;;5075810;28;19924;-83
2021/06/20 12:48:41;;;;;;;;;;;18.00;99.90;;;;;;5075698;28;19950;-84
2021/06/20 12:51:13;;;;;;;;;;;18.00;99.90;;;;;;5075760;28;19928;-83
2021/06/20 12:53:42;;;;;;;;;;;18.00;99.90;;;;;;5075803;28;19991;-81
2021/06/20 12:56:21;;;;;;;;;;;18.10;99.90;;;;;;5075573;28;20025;-83
2021/06/20 12:58:57;;;;;;;;;;;18.20;99.90;;;;;;5075777;28;19935;-80
2021/06/20 13:01:24;;;;;;;;;;;18.20;99.90;;;;;;5075610;28;19935;-80
2021/06/20 13:03:52;;;;;;;;;;;18.20;99.90;;;;;;5075641;28;19924;-85
2021/06/20 13:06:21;;;;;;;;;;;18.20;99.90;;;;;;5075486;28;19925;-85
2021/06/20 13:08:48;;;;;;;;;;;18.20;99.90;;;;;;5075453;28;19935;-85
2021/06/20 13:11:16;;;;;;;;;;;18.00;99.90;;;;;;5074181;28;21398;-85
2021/06/20 13:13:43;;;;;;;;;;;17.90;99.90;;;;;;5075473;28;19938;-85
2021/06/20 13:16:13;;;;;;;;;;;18.00;99.40;;;;;;5075389;28;19971;-85
2021/06/20 13:18:40;;;;;;;;;;;18.00;99.90;;;;;;5075315;28;19989;-84
2021/06/20 13:21:07;;;;;;;;;;;18.00;99.90;;;;;;5075255;28;19925;-85
2021/06/20 13:23:34;;;;;;;;;;;18.00;99.90;;;;;;5073678;28;19924;-85
2021/06/20 13:26:01;;;;;;;;;;;18.10;99.90;;;;;;5055197;28;19924;-85
2021/06/20 13:28:29;;;;;;;;;;;18.10;99.90;;;;;;5070487;28;19924;-84
2021/06/20 13:30:56;;;;;;;;;;;18.10;99.90;;;;;;5075485;28;20319;-85
2021/06/20 13:33:26;;;;;;;;;;;18.10;99.90;;;;;;5075137;28;19936;-84
2021/06/20 13:35:53;;;;;;;;;;;18.20;99.90;;;;;;5075073;28;19928;-84
2021/06/20 13:38:20;;;;;;;;;;;18.30;99.90;;;;;;5075032;28;19924;-84
2021/06/20 13:40:47;;;;;;;;;;;18.30;99.10;;;;;;5075082;28;19954;-82
2021/06/20 13:43:14;;;;;;;;;;;18.20;99.90;;;;;;5074882;28;19924;-81
2021/06/20 13:45:41;;;;;;;;;;;18.20;99.90;;;;;;5074759;28;19924;-84
2021/06/20 13:48:08;;;;;;;;;;;18.10;99.90;;;;;;5075119;28;19928;-83
2021/06/20 13:50:37;;;;;;;;;;;18.10;99.90;;;;;;5074919;28;19935;-83
2021/06/20 13:53:03;;;;;;;;;;;18.10;99.90;;;;;;5074918;28;19987;-84
2021/06/20 13:55:30;;;;;;;;;;;18.20;99.90;;;;;;5074914;28;19934;-82
2021/06/20 13:57:59;;;;;;;;;;;18.10;98.40;;;;;;5075127;28;19924;-82
2021/06/20 14:00:27;;;;;;;;;;;18.10;99.90;;;;;;5074979;28;19932;-82
2021/06/20 14:02:54;;;;;;;;;;;18.20;99.90;;;;;;5074882;28;19978;-83
2021/06/20 14:05:22;;;;;;;;;;;18.20;99.90;;;;;;5057731;28;20233;-82
2021/06/20 14:07:50;;;;;;;;;;;18.20;99.90;;;;;;5056781;28;19931;-84
2021/06/20 14:10:17;;;;;;;;;;;18.20;99.90;;;;;;5054756;28;19924;-85
2021/06/20 14:12:44;;;;;;;;;;;18.20;99.90;;;;;;5054669;28;19929;-84
2021/06/20 14:15:11;;;;;;;;;;;18.20;99.00;;;;;;5054789;28;20391;-84
2021/06/20 14:17:38;;;;;;;;;;;18.20;99.90;;;;;;5054549;28;20312;-84
2021/06/20 14:20:05;;;;;;;;;;;18.10;99.80;;;;;;5054661;28;19925;-85